createdAt,value
2023-03-11T00:00:50.386Z,10.92
2023-03-11T00:02:50.442Z,11.16
2023-03-11T00:04:50.393Z,11.2
2023-03-11T00:07:53.040Z,11.12
2023-03-11T00:09:53.062Z,11.17
2023-03-11T00:11:53.059Z,11.25
2023-03-11T00:13:53.070Z,11.3
2023-03-11T00:15:53.095Z,11.26
2023-03-11T00:17:53.030Z,11.05
2023-03-11T00:19:53.024Z,10.99
2023-03-11T00:21:53.068Z,11.24
2023-03-11T00:23:44.943Z,11.18
2023-03-11T00:25:44.996Z,11.31
2023-03-11T00:27:44.940Z,11.22
2023-03-11T00:29:44.954Z,11.1
2023-03-11T00:31:44.953Z,11.36
2023-03-11T00:33:44.965Z,11.47
2023-03-11T00:35:45.000Z,11.5
2023-03-11T00:38:39.440Z,11.57
2023-03-11T00:40:39.358Z,11.53
2023-03-11T00:42:39.413Z,11.39
2023-03-11T00:44:39.375Z,11.47
2023-03-11T00:46:39.429Z,11.58
2023-03-11T00:48:39.395Z,11.51
2023-03-11T00:50:39.374Z,11.44
2023-03-11T00:53:27.478Z,11.09
2023-03-11T00:55:27.563Z,10.96
2023-03-11T00:57:27.488Z,10.9
2023-03-11T00:59:27.515Z,10.89
2023-03-11T01:01:27.567Z,10.83
2023-03-11T01:03:27.456Z,10.79
2023-03-11T01:05:27.549Z,10.64
2023-03-11T01:07:27.482Z,10.75
2023-03-11T01:08:57.726Z,10.76
2023-03-11T01:10:57.719Z,10.67
2023-03-11T01:12:57.758Z,10.61
2023-03-11T01:14:57.729Z,10.64
2023-03-11T01:16:57.759Z,10.57
2023-03-11T01:18:57.731Z,10.5
2023-03-11T01:20:57.744Z,10.41
2023-03-11T01:24:16.636Z,10.14
2023-03-11T01:26:16.634Z,10.3
2023-03-11T01:28:16.660Z,10.31
2023-03-11T01:30:16.630Z,10.15
2023-03-11T01:32:16.730Z,10.25
2023-03-11T01:34:16.666Z,10.15
2023-03-11T01:36:16.684Z,9.88
2023-03-11T01:39:09.629Z,9.77
2023-03-11T01:41:09.553Z,9.94
2023-03-11T01:43:09.739Z,10.03
2023-03-11T01:45:09.672Z,10.05
2023-03-11T01:47:09.596Z,10.14
2023-03-11T01:49:09.773Z,10.05
2023-03-11T01:51:09.879Z,10.04
2023-03-11T01:54:46.603Z,10
2023-03-11T01:56:46.532Z,10.05
2023-03-11T01:58:46.545Z,9.98
2023-03-11T02:00:46.573Z,10
2023-03-11T02:02:46.601Z,10.04
2023-03-11T02:04:46.546Z,9.99
2023-03-11T02:06:46.527Z,9.96
2023-03-11T02:09:36.838Z,9.94
2023-03-11T02:11:36.852Z,9.89
2023-03-11T02:13:37.216Z,9.92
2023-03-11T02:15:38.937Z,9.96
2023-03-11T02:17:36.826Z,9.8
2023-03-11T02:19:36.946Z,9.87
2023-03-11T02:21:36.864Z,9.86
2023-03-11T02:24:32.241Z,9.87
2023-03-11T02:26:32.279Z,9.81
2023-03-11T02:28:32.304Z,9.69
2023-03-11T02:30:32.571Z,9.71
2023-03-11T02:32:32.594Z,9.69
2023-03-11T02:34:32.236Z,9.81
2023-03-11T02:36:32.354Z,9.69
2023-03-11T02:39:48.033Z,9.63
2023-03-11T02:41:48.043Z,9.64
2023-03-11T02:43:48.043Z,9.49
2023-03-11T02:45:48.106Z,9.57
2023-03-11T02:47:48.004Z,9.47
2023-03-11T02:49:48.129Z,9.45
2023-03-11T02:51:48.345Z,9.58
2023-03-11T02:55:29.972Z,9.55
2023-03-11T02:57:29.991Z,9.6
2023-03-11T02:59:29.985Z,9.62
2023-03-11T03:01:30.001Z,9.58
2023-03-11T03:03:29.958Z,9.56
2023-03-11T03:05:29.961Z,9.56
2023-03-11T03:07:30.019Z,9.5
2023-03-11T03:10:13.960Z,9.62
2023-03-11T03:12:14.006Z,9.83
2023-03-11T03:14:13.968Z,9.57
2023-03-11T03:16:14.123Z,9.6
2023-03-11T03:18:13.946Z,9.71
2023-03-11T03:20:13.998Z,9.77
2023-03-11T03:22:14.012Z,9.6
2023-03-11T03:25:07.444Z,9.68
2023-03-11T03:27:07.452Z,9.68
2023-03-11T03:29:07.388Z,9.5
2023-03-11T03:31:07.374Z,9.6
2023-03-11T03:33:07.439Z,9.54
2023-03-11T03:35:07.440Z,9.62
2023-03-11T03:37:07.383Z,9.5
2023-03-11T03:39:07.423Z,9.7
2023-03-11T03:40:21.677Z,9.7
2023-03-11T03:42:21.718Z,9.66
2023-03-11T03:44:21.679Z,9.69
2023-03-11T03:46:21.739Z,9.79
2023-03-11T03:48:21.755Z,9.87
2023-03-11T03:50:21.949Z,9.84
2023-03-11T03:52:21.658Z,9.97
2023-03-11T03:56:05.192Z,9.95
2023-03-11T03:58:05.271Z,9.96
2023-03-11T04:00:05.030Z,9.97
2023-03-11T04:02:05.325Z,9.96
2023-03-11T04:04:04.924Z,9.97
2023-03-11T04:06:04.914Z,10
2023-03-11T04:08:04.932Z,9.9
2023-03-11T04:10:50.373Z,9.95
2023-03-11T04:12:50.378Z,9.82
2023-03-11T04:14:50.418Z,9.85
2023-03-11T04:16:50.419Z,9.7
2023-03-11T04:18:50.402Z,9.69
2023-03-11T04:20:50.395Z,9.69
2023-03-11T04:22:50.352Z,9.82
2023-03-11T04:26:36.749Z,9.75
2023-03-11T04:28:36.718Z,9.67
2023-03-11T04:30:36.744Z,9.5
2023-03-11T04:32:36.804Z,9.67
2023-03-11T04:34:36.695Z,9.4
2023-03-11T04:36:36.746Z,9.53
2023-03-11T04:38:36.764Z,9.62
2023-03-11T04:41:29.370Z,9.62
2023-03-11T04:43:29.421Z,9.75
2023-03-11T04:45:29.347Z,9.66
2023-03-11T04:47:29.396Z,9.69
2023-03-11T04:49:29.356Z,9.71
2023-03-11T04:51:29.340Z,9.75
2023-03-11T04:53:29.391Z,9.74
2023-03-11T04:56:10.252Z,9.76
2023-03-11T04:58:10.199Z,9.65
2023-03-11T05:00:10.265Z,9.62
2023-03-11T05:02:12.754Z,9.65
2023-03-11T05:04:10.205Z,9.61
2023-03-11T05:06:10.238Z,9.64
2023-03-11T05:08:10.192Z,9.49
2023-03-11T05:10:10.260Z,9.56
2023-03-11T05:11:29.523Z,9.58
2023-03-11T05:13:29.488Z,9.68
2023-03-11T05:15:29.490Z,9.69
2023-03-11T05:17:29.513Z,9.37
2023-03-11T05:19:29.521Z,9.41
2023-03-11T05:21:29.499Z,9.44
2023-03-11T05:23:29.482Z,9.54
2023-03-11T05:26:34.567Z,9.5
2023-03-11T05:28:34.223Z,9.65
2023-03-11T05:30:34.232Z,9.43
2023-03-11T05:32:34.281Z,9.49
2023-03-11T05:34:34.230Z,9.68
2023-03-11T05:36:34.227Z,9.76
2023-03-11T05:38:34.517Z,9.7
2023-03-11T05:41:56.033Z,9.8
2023-03-11T05:43:56.018Z,9.82
2023-03-11T05:45:55.976Z,9.87
2023-03-11T05:47:56.026Z,9.97
2023-03-11T05:49:56.025Z,9.94
2023-03-11T05:51:58.457Z,9.83
2023-03-11T05:53:56.083Z,9.83
2023-03-11T05:57:28.536Z,9.89
2023-03-11T05:59:28.498Z,9.98
2023-03-11T06:01:28.498Z,9.91
2023-03-11T06:03:28.553Z,10
2023-03-11T06:05:28.540Z,10.02
2023-03-11T06:07:28.423Z,9.93
2023-03-11T06:09:28.609Z,10.01
2023-03-11T06:12:30.281Z,10.15
2023-03-11T06:14:30.260Z,10.3
2023-03-11T06:16:30.223Z,10.3
2023-03-11T06:18:30.235Z,10.41
2023-03-11T06:20:30.162Z,10.42
2023-03-11T06:22:30.244Z,10.43
2023-03-11T06:24:30.219Z,10.48
2023-03-11T06:27:24.205Z,10.57
2023-03-11T06:29:24.186Z,10.69
2023-03-11T06:31:24.352Z,10.57
2023-03-11T06:33:24.144Z,10.61
2023-03-11T06:35:24.168Z,10.48
2023-03-11T06:37:24.149Z,10.42
2023-03-11T06:39:24.211Z,10.38
2023-03-11T06:42:51.668Z,10.25
2023-03-11T06:44:51.432Z,10.36
2023-03-11T06:46:51.387Z,10.69
2023-03-11T06:48:51.372Z,10.98
2023-03-11T06:50:51.440Z,10.91
2023-03-11T06:52:51.378Z,10.7
2023-03-11T06:54:51.331Z,11.03
2023-03-11T06:58:06.757Z,11.31
2023-03-11T07:00:06.771Z,11.52
2023-03-11T07:02:06.802Z,11.7
2023-03-11T07:04:06.792Z,11.74
2023-03-11T07:06:06.884Z,11.49
2023-03-11T07:08:06.768Z,11.64
2023-03-11T07:10:06.807Z,11.97
2023-03-11T07:13:02.351Z,11.53
2023-03-11T07:15:02.312Z,11.24
2023-03-11T07:17:02.419Z,11.43
2023-03-11T07:19:02.342Z,11.56
2023-03-11T07:21:02.465Z,11.87
2023-03-11T07:23:02.302Z,12.08
2023-03-11T07:25:02.297Z,12.02
2023-03-11T07:28:19.243Z,12.53
2023-03-11T07:30:19.394Z,12.73
2023-03-11T07:32:19.220Z,12.91
2023-03-11T07:34:19.116Z,12.99
2023-03-11T07:36:19.861Z,13.01
2023-03-11T07:38:19.642Z,12.65
2023-03-11T07:40:19.181Z,12.88
2023-03-11T07:43:52.710Z,13.98
2023-03-11T07:45:52.435Z,14.14
2023-03-11T07:47:54.461Z,13.61
2023-03-11T07:49:52.377Z,14.07
2023-03-11T07:51:52.492Z,14.49
2023-03-11T07:53:52.432Z,14.68
2023-03-11T07:55:52.386Z,15.02
2023-03-11T07:58:53.811Z,15.46
2023-03-11T08:00:53.778Z,14.76
2023-03-11T08:02:53.722Z,14.02
2023-03-11T08:04:53.762Z,14.67
2023-03-11T08:06:53.807Z,15.1
2023-03-11T08:08:53.781Z,15.67
2023-03-11T08:10:53.726Z,15.38
2023-03-11T08:13:25.605Z,15.87
2023-03-11T08:15:25.709Z,16.01
2023-03-11T08:17:25.632Z,15.88
2023-03-11T08:19:25.653Z,15.74
2023-03-11T08:21:25.578Z,15.1
2023-03-11T08:23:25.548Z,13.56
2023-03-11T08:25:25.588Z,13.05
2023-03-11T08:29:10.332Z,12.45
2023-03-11T08:31:10.440Z,12.57
2023-03-11T08:33:10.282Z,13.06
2023-03-11T08:35:10.329Z,13.43
2023-03-11T08:37:10.460Z,13.23
2023-03-11T08:39:10.363Z,13.73
2023-03-11T08:41:10.233Z,14.45
2023-03-11T08:44:06.256Z,15.1
2023-03-11T08:46:06.299Z,15.29
2023-03-11T08:48:06.361Z,15.46
2023-03-11T08:50:06.320Z,15.48
2023-03-11T08:52:06.302Z,15.54
2023-03-11T08:54:06.252Z,15.54
2023-03-11T08:56:06.218Z,15.41
2023-03-11T08:58:55.542Z,15.29
2023-03-11T09:00:55.163Z,15.42
2023-03-11T09:03:01.251Z,15.39
2023-03-11T09:04:55.051Z,15.73
2023-03-11T09:06:55.261Z,16.12
2023-03-11T09:08:55.398Z,16.21
2023-03-11T09:10:55.135Z,15.95
2023-03-11T09:14:20.458Z,15.29
2023-03-11T09:16:20.455Z,15.32
2023-03-11T09:18:20.476Z,15.6
2023-03-11T09:20:20.495Z,15.18
2023-03-11T09:22:20.450Z,16.14
2023-03-11T09:24:20.439Z,15.46
2023-03-11T09:26:20.543Z,15.97
2023-03-11T09:29:26.155Z,15.82
2023-03-11T09:31:26.428Z,16.01
2023-03-11T09:33:26.250Z,16.25
2023-03-11T09:35:26.257Z,16.42
2023-03-11T09:37:26.268Z,16.32
2023-03-11T09:39:26.165Z,15.89
2023-03-11T09:41:26.218Z,16.27
2023-03-11T09:45:01.701Z,16.47
2023-03-11T09:47:01.754Z,17.35
2023-03-11T09:49:01.679Z,17.44
2023-03-11T09:51:01.658Z,17.3
2023-03-11T09:53:01.747Z,16.55
2023-03-11T09:55:01.640Z,17.05
2023-03-11T09:57:01.682Z,17.16
2023-03-11T10:00:21.945Z,16.51
2023-03-11T10:02:21.936Z,16.4
2023-03-11T10:04:21.905Z,15.7
2023-03-11T10:06:21.833Z,15.81
2023-03-11T10:08:22.869Z,15.56
2023-03-11T10:10:22.156Z,15.43
2023-03-11T10:12:21.970Z,15.72
2023-03-11T10:15:05.986Z,15.71
2023-03-11T10:17:05.940Z,15.44
2023-03-11T10:19:06.181Z,15.21
2023-03-11T10:21:05.883Z,15.29
2023-03-11T10:23:05.911Z,15.01
2023-03-11T10:25:05.911Z,14.88
2023-03-11T10:27:06.504Z,14.7
2023-03-11T10:29:52.796Z,14.63
2023-03-11T10:31:58.689Z,14.53
2023-03-11T10:33:52.576Z,14.43
2023-03-11T10:35:52.704Z,14.39
2023-03-11T10:37:52.662Z,14.93
2023-03-11T10:39:53.615Z,15.76
2023-03-11T10:41:52.554Z,16.4
2023-03-11T10:43:52.554Z,17.08
2023-03-11T10:45:25.955Z,17.17
2023-03-11T10:47:25.936Z,16.99
2023-03-11T10:49:25.944Z,17.39
2023-03-11T10:51:25.899Z,17.63
2023-03-11T10:53:25.945Z,17.36
2023-03-11T10:55:25.935Z,17.46
2023-03-11T10:57:25.956Z,17.44
2023-03-11T11:00:58.166Z,17.37
2023-03-11T11:02:58.248Z,17.37
2023-03-11T11:04:58.106Z,17.12
2023-03-11T11:06:58.074Z,16.92
2023-03-11T11:08:58.106Z,16.03
2023-03-11T11:10:58.287Z,16.34
2023-03-11T11:12:58.088Z,16.7
2023-03-11T11:15:52.584Z,16.57
2023-03-11T11:17:50.602Z,16.54
2023-03-11T11:19:50.549Z,16.68
2023-03-11T11:21:50.571Z,16.67
2023-03-11T11:23:52.086Z,16.66
2023-03-11T11:25:50.554Z,16.5
2023-03-11T11:27:50.657Z,16.5
2023-03-11T11:31:01.002Z,16.97
2023-03-11T11:33:00.948Z,16.83
2023-03-11T11:35:01.923Z,17.03
2023-03-11T11:37:01.004Z,17.04
2023-03-11T11:39:00.976Z,17.09
2023-03-11T11:41:00.951Z,17.45
2023-03-11T11:43:00.950Z,17.87
2023-03-11T11:46:26.725Z,18.09
2023-03-11T11:48:26.778Z,18.51
2023-03-11T11:50:26.658Z,18.29
2023-03-11T11:52:26.670Z,18.48
2023-03-11T11:54:26.715Z,18.24
2023-03-11T11:56:26.680Z,18.11
2023-03-11T11:58:26.675Z,18.08
2023-03-11T12:01:17.379Z,17.52
2023-03-11T12:03:15.640Z,17.28
2023-03-11T12:05:15.486Z,17.6
2023-03-11T12:07:15.335Z,17.46
2023-03-11T12:09:17.399Z,17.31
2023-03-11T12:11:15.375Z,16.99
2023-03-11T12:13:15.372Z,16.83
2023-03-11T12:15:55.247Z,16.95
2023-03-11T12:17:55.205Z,17.14
2023-03-11T12:19:55.280Z,17.2
2023-03-11T12:21:55.259Z,17.03
2023-03-11T12:23:55.237Z,16.62
2023-03-11T12:25:55.259Z,16.75
2023-03-11T12:27:55.267Z,16.84
2023-03-11T12:29:55.228Z,16.68
2023-03-11T12:31:47.105Z,16.91
2023-03-11T12:33:47.128Z,17.08
2023-03-11T12:35:47.033Z,17.08
2023-03-11T12:37:47.228Z,17.26
2023-03-11T12:39:46.971Z,17.14
2023-03-11T12:41:47.034Z,17.17
2023-03-11T12:43:46.986Z,17.26
2023-03-11T12:47:06.857Z,17.54
2023-03-11T12:49:06.863Z,17.32
2023-03-11T12:53:06.879Z,16.92
2023-03-11T12:55:06.797Z,16.52
2023-03-11T12:57:06.835Z,16.85
2023-03-11T12:59:06.844Z,16.56
2023-03-11T13:02:13.319Z,16.74
2023-03-11T13:04:15.291Z,16.66
2023-03-11T13:06:13.292Z,16.7
2023-03-11T13:08:13.342Z,16.54
2023-03-11T13:10:15.315Z,16.79
2023-03-11T13:12:13.303Z,16.71
2023-03-11T13:14:13.280Z,16.59
2023-03-11T13:16:48.859Z,16.5
2023-03-11T13:18:48.824Z,16.49
2023-03-11T13:20:48.810Z,16.54
2023-03-11T13:22:48.860Z,16.33
2023-03-11T13:24:48.854Z,16.16
2023-03-11T13:26:48.878Z,16.04
2023-03-11T13:28:48.876Z,15.67
2023-03-11T13:32:01.547Z,15.55
2023-03-11T13:34:01.514Z,15.44
2023-03-11T13:36:01.479Z,15.08
2023-03-11T13:38:03.529Z,15.08
2023-03-11T13:40:01.548Z,15.02
2023-03-11T13:42:01.475Z,14.67
2023-03-11T13:44:01.511Z,14.52
2023-03-11T13:46:58.534Z,14.6
2023-03-11T13:48:58.515Z,14.64
2023-03-11T13:50:58.499Z,14.41
2023-03-11T13:52:58.473Z,14.38
2023-03-11T13:54:58.594Z,14.16
2023-03-11T13:56:58.506Z,13.77
2023-03-11T13:58:58.527Z,13.51
2023-03-11T14:00:58.500Z,13.53
2023-03-11T14:02:23.635Z,13.43
2023-03-11T14:04:23.756Z,13.57
2023-03-11T14:06:26.678Z,13.3
2023-03-11T14:08:23.628Z,13.45
2023-03-11T14:10:24.059Z,13.44
2023-03-11T14:12:23.686Z,13.39
2023-03-11T14:14:23.688Z,13.03
2023-03-11T14:17:55.937Z,12.91
2023-03-11T14:19:55.921Z,13.32
2023-03-11T14:21:55.923Z,13.51
2023-03-11T14:23:56.099Z,13.38
2023-03-11T14:25:57.019Z,13.37
2023-03-11T14:27:55.980Z,13.43
2023-03-11T14:29:56.191Z,13.48
2023-03-11T14:32:46.710Z,13.4
2023-03-11T14:34:47.021Z,13.29
2023-03-11T14:36:47.820Z,13.29
2023-03-11T14:38:46.638Z,13.31
2023-03-11T14:40:46.860Z,13.24
2023-03-11T14:42:46.952Z,13.35
2023-03-11T14:44:47.073Z,13.47
2023-03-11T14:47:32.501Z,13.47
2023-03-11T14:49:32.318Z,13.34
2023-03-11T14:51:32.291Z,13.17
2023-03-11T14:53:32.301Z,13.11
2023-03-11T14:55:32.405Z,13.19
2023-03-11T14:57:33.567Z,13.06
2023-03-11T14:59:36.232Z,13.02
2023-03-11T15:01:32.704Z,12.99
2023-03-11T15:03:14.064Z,12.98
2023-03-11T15:05:14.041Z,13.01
2023-03-11T15:07:13.949Z,13.04
2023-03-11T15:09:14.028Z,13.1
2023-03-11T15:11:13.966Z,12.99
2023-03-11T15:13:13.932Z,12.77
2023-03-11T15:15:14.308Z,12.47
2023-03-11T15:18:18.526Z,11.88
2023-03-11T15:20:18.545Z,11.53
2023-03-11T15:22:18.482Z,11.69
2023-03-11T15:24:18.511Z,11.63
2023-03-11T15:26:18.603Z,11.65
2023-03-11T15:28:18.546Z,11.76
2023-03-11T15:30:19.094Z,11.9
2023-03-11T15:33:15.782Z,11.99
2023-03-11T15:35:15.766Z,11.92
2023-03-11T15:37:15.832Z,11.98
2023-03-11T15:39:15.761Z,12.08
2023-03-11T15:41:15.721Z,12.12
2023-03-11T15:43:15.711Z,12.12
2023-03-11T15:45:16.750Z,12.05
2023-03-11T15:48:35.633Z,11.81
2023-03-11T15:50:50.702Z,11.68
2023-03-11T15:52:35.616Z,11.66
2023-03-11T15:54:35.564Z,11.5
2023-03-11T15:56:35.656Z,11.38
2023-03-11T15:58:35.747Z,11.28
2023-03-11T16:00:35.657Z,11.26
2023-03-11T16:04:08.686Z,11.27
2023-03-11T16:06:08.699Z,11.18
2023-03-11T16:08:08.644Z,11.08
2023-03-11T16:10:08.640Z,11.02
2023-03-11T16:12:08.541Z,10.82
2023-03-11T16:14:08.539Z,10.81
2023-03-11T16:16:08.698Z,10.9
2023-03-11T16:18:43.705Z,10.87
2023-03-11T16:20:43.658Z,10.88
2023-03-11T16:22:43.659Z,10.93
2023-03-11T16:24:43.595Z,11
2023-03-11T16:26:43.560Z,10.98
2023-03-11T16:28:43.672Z,10.88
2023-03-11T16:30:43.576Z,10.8
2023-03-11T16:34:12.621Z,11
2023-03-11T16:36:12.591Z,11.06
2023-03-11T16:38:12.640Z,11.05
2023-03-11T16:40:12.663Z,11.07
2023-03-11T16:42:12.574Z,10.7
2023-03-11T16:44:12.646Z,10.24
2023-03-11T16:46:12.748Z,9.93
2023-03-11T16:49:28.417Z,10.05
2023-03-11T16:51:28.344Z,9.61
2023-03-11T16:53:28.332Z,9.42
2023-03-11T16:55:28.372Z,9.44
2023-03-11T16:57:28.335Z,9.28
2023-03-11T16:59:28.321Z,9.49
2023-03-11T17:01:33.703Z,9.39
2023-03-11T17:04:45.601Z,9.28
2023-03-11T17:06:45.582Z,9.41
2023-03-11T17:08:45.551Z,9.01
2023-03-11T17:10:45.568Z,8.92
2023-03-11T17:12:45.588Z,9.07
2023-03-11T17:14:45.537Z,8.9
2023-03-11T17:16:45.582Z,9.03
2023-03-11T17:20:06.626Z,8.91
2023-03-11T17:22:06.698Z,8.99
2023-03-11T17:24:06.645Z,9.05
2023-03-11T17:26:06.638Z,9.05
2023-03-11T17:28:06.659Z,9.2
2023-03-11T17:30:06.601Z,9.11
2023-03-11T17:32:06.686Z,9.13
2023-03-11T17:34:41.695Z,8.99
2023-03-11T17:36:41.712Z,8.99
2023-03-11T17:38:45.095Z,8.86
2023-03-11T17:40:41.698Z,8.85
2023-03-11T17:42:41.795Z,8.52
2023-03-11T17:44:51.296Z,8.63
2023-03-11T17:46:41.991Z,8.48
2023-03-11T17:50:10.459Z,8.47
2023-03-11T17:52:10.498Z,8.46
2023-03-11T17:54:10.488Z,8.64
2023-03-11T17:56:10.454Z,8.65
2023-03-11T17:58:10.411Z,8.53
2023-03-11T18:00:10.460Z,8.09
2023-03-11T18:02:10.542Z,8.01
2023-03-11T18:04:36.038Z,8.15
2023-03-11T18:06:36.021Z,8.08
2023-03-11T18:08:35.991Z,8.06
2023-03-11T18:10:35.994Z,8.03
2023-03-11T18:12:36.021Z,8.21
2023-03-11T18:14:35.973Z,8.13
2023-03-11T18:16:36.037Z,8.2
2023-03-11T18:18:35.948Z,8.32
2023-03-11T18:20:28.718Z,8.34
2023-03-11T18:22:28.769Z,8.06
2023-03-11T18:24:28.709Z,7.99
2023-03-11T18:26:28.784Z,7.83
2023-03-11T18:28:28.722Z,7.85
2023-03-11T18:30:28.751Z,7.96
2023-03-11T18:32:28.750Z,7.85
2023-03-11T18:35:42.377Z,7.75
2023-03-11T18:37:42.359Z,7.86
2023-03-11T18:39:42.353Z,7.73
2023-03-11T18:41:42.316Z,7.33
2023-03-11T18:43:42.337Z,7.24
2023-03-11T18:45:42.402Z,7.07
2023-03-11T18:47:42.582Z,7.19
2023-03-11T18:50:27.045Z,7.23
2023-03-11T18:52:28.130Z,7.11
2023-03-11T18:54:27.128Z,6.85
2023-03-11T18:56:27.095Z,6.91
2023-03-11T18:58:27.275Z,7.11
2023-03-11T19:00:27.054Z,7.13
2023-03-11T19:02:27.093Z,7.08
2023-03-11T19:05:58.661Z,6.72
2023-03-11T19:07:58.651Z,6.8
2023-03-11T19:09:58.621Z,6.69
2023-03-11T19:11:58.602Z,6.6
2023-03-11T19:13:58.576Z,6.72
2023-03-11T19:15:58.619Z,6.69
2023-03-11T19:18:06.479Z,6.36
2023-03-11T19:21:00.440Z,6.43
2023-03-11T19:23:00.464Z,6.41
2023-03-11T19:25:00.377Z,6.43
2023-03-11T19:27:00.432Z,6.6
2023-03-11T19:29:00.461Z,6.61
2023-03-11T19:31:00.489Z,6.69
2023-03-11T19:33:00.459Z,6.75
2023-03-11T19:35:46.184Z,6.75
2023-03-11T19:37:46.193Z,6.9
2023-03-11T19:39:46.172Z,6.87
2023-03-11T19:41:46.147Z,6.94
2023-03-11T19:43:46.169Z,7.03
2023-03-11T19:45:46.414Z,7.06
2023-03-11T19:47:46.182Z,7.08
2023-03-11T19:51:49.900Z,6.88
2023-03-11T19:53:44.108Z,6.85
2023-03-11T19:55:44.058Z,6.97
2023-03-11T19:57:44.114Z,6.68
2023-03-11T19:59:44.080Z,6.6
2023-03-11T20:01:44.092Z,6.78
2023-03-11T20:03:43.995Z,6.93
2023-03-11T20:06:40.886Z,6.89
2023-03-11T20:08:40.730Z,6.89
2023-03-11T20:10:40.779Z,6.88
2023-03-11T20:12:49.466Z,6.95
2023-03-11T20:14:40.775Z,6.92
2023-03-11T20:16:40.787Z,6.83
2023-03-11T20:18:40.826Z,6.78
2023-03-11T20:21:37.428Z,6.86
2023-03-11T20:23:37.332Z,6.93
2023-03-11T20:25:37.498Z,6.96
2023-03-11T20:27:37.369Z,6.93
2023-03-11T20:29:37.508Z,6.97
2023-03-11T20:31:37.452Z,6.98
2023-03-11T20:33:37.474Z,6.96
2023-03-11T20:36:52.935Z,6.93
2023-03-11T20:38:52.918Z,6.95
2023-03-11T20:40:52.797Z,6.84
2023-03-11T20:42:52.798Z,6.77
2023-03-11T20:44:52.974Z,6.78
2023-03-11T20:46:52.887Z,6.8
2023-03-11T20:48:52.783Z,6.65
2023-03-11T20:51:31.863Z,6.59
2023-03-11T20:53:31.654Z,6.59
2023-03-11T20:55:31.533Z,6.45
2023-03-11T20:57:31.672Z,6.41
2023-03-11T20:59:31.575Z,6.39
2023-03-11T21:01:31.650Z,6.32
2023-03-11T21:03:31.808Z,6.36
2023-03-11T21:05:31.601Z,6.26
2023-03-11T21:07:07.433Z,6.27
2023-03-11T21:09:07.671Z,6.26
2023-03-11T21:11:07.865Z,6.25
2023-03-11T21:13:07.490Z,6.34
2023-03-11T21:15:07.495Z,6.28
2023-03-11T21:17:07.636Z,6.28
2023-03-11T21:19:07.349Z,6.21
2023-03-11T21:21:46.067Z,6.26
2023-03-11T21:23:45.757Z,6.25
2023-03-11T21:25:45.752Z,6.16
2023-03-11T21:27:45.712Z,5.98
2023-03-11T21:29:45.648Z,6.1
2023-03-11T21:31:45.798Z,6.05
2023-03-11T21:33:45.943Z,6.02
2023-03-11T21:35:45.762Z,5.99
2023-03-11T21:37:20.296Z,5.94
2023-03-11T21:39:20.304Z,5.84
2023-03-11T21:41:20.728Z,5.73
2023-03-11T21:43:20.629Z,5.59
2023-03-11T21:45:20.278Z,5.62
2023-03-11T21:47:20.388Z,5.56
2023-03-11T21:49:20.316Z,5.53
2023-03-11T21:52:47.718Z,5.51
2023-03-11T21:54:47.606Z,5.52
2023-03-11T21:56:47.745Z,5.52
2023-03-11T21:58:47.730Z,5.39
2023-03-11T22:00:47.795Z,5.47
2023-03-11T22:02:47.650Z,5.41
2023-03-11T22:04:47.836Z,5.26
2023-03-11T22:07:18.179Z,5.17
2023-03-11T22:09:18.221Z,5.14
2023-03-11T22:11:18.457Z,5.22
2023-03-11T22:13:18.179Z,5.2
2023-03-11T22:15:18.229Z,5.09
2023-03-11T22:17:18.312Z,5.1
2023-03-11T22:19:18.248Z,4.95
2023-03-11T22:21:18.249Z,4.88
2023-03-11T22:23:04.349Z,4.81
2023-03-11T22:25:04.364Z,4.81
2023-03-11T22:27:04.319Z,4.81
2023-03-11T22:29:04.796Z,4.86
2023-03-11T22:31:04.272Z,4.88
2023-03-11T22:33:04.266Z,4.88
2023-03-11T22:35:04.283Z,4.55
2023-03-11T22:37:36.889Z,4.46
2023-03-11T22:39:36.900Z,4.58
2023-03-11T22:41:36.880Z,4.44
2023-03-11T22:43:36.884Z,4.39
2023-03-11T22:45:36.957Z,4.3
2023-03-11T22:47:36.860Z,3.98
2023-03-11T22:49:36.895Z,3.82
2023-03-11T22:51:36.895Z,3.81
2023-03-11T22:53:22.860Z,3.83
2023-03-11T22:55:22.917Z,3.97
2023-03-11T22:57:22.831Z,3.91
2023-03-11T22:59:22.857Z,3.95
2023-03-11T23:01:22.876Z,3.9
2023-03-11T23:03:22.899Z,3.87
2023-03-11T23:05:22.863Z,3.81
2023-03-11T23:08:25.938Z,3.82
2023-03-11T23:10:25.935Z,3.95
2023-03-11T23:12:26.019Z,3.68
2023-03-11T23:14:33.938Z,3.57
2023-03-11T23:16:26.122Z,3.56
2023-03-11T23:18:25.970Z,3.48
2023-03-11T23:20:25.931Z,3.35
2023-03-11T23:23:47.324Z,3.38
2023-03-11T23:25:47.287Z,3.27
2023-03-11T23:27:47.454Z,3.42
2023-03-11T23:29:47.295Z,3.59
2023-03-11T23:31:47.309Z,3.33
2023-03-11T23:33:47.301Z,3.16
2023-03-11T23:35:47.472Z,3.21
2023-03-11T23:39:02.927Z,3.45
2023-03-11T23:41:02.887Z,3.33
2023-03-11T23:43:02.968Z,3.19
2023-03-11T23:45:02.931Z,2.92
2023-03-11T23:47:02.947Z,3.09
2023-03-11T23:49:02.928Z,2.92
2023-03-11T23:51:02.891Z,2.86
2023-03-11T23:54:00.258Z,2.87
2023-03-11T23:56:00.370Z,3.05
2023-03-11T23:58:00.245Z,2.97
